Airfield :
LOGIN :

Register | Disclaimer

   EN    FR    IT 

 










Legend :    VFR   Marginal VFR   IFR   Intensive IFR   Very Intensive IFR
Visi :
Ceiling :
>= 8 km
>= 3000ft
5 to 8 km
1000 to 3000 ft
1500m to 5 km
500 to 1000 ft
800 to 1500m
200 to 500 ft
< 800m
< 200 ft
Symbols :   Thunderstorms  Fog  Heavy snow  Heavy precipitations  Wind > 20 kt
SIGMETs :     Misc.  Thunderstorms  Icing  Turbulence  Mountain Waves  Volcanic Ashes







- Airport Elevation : 1416 ft
- IATA code : ZRH


LSZH - Zurich

CURRENT METAR :
  • 220020Z 17006KT 9999 FEW013 BKN090 18/16 Q1015 TEMPO SHRA

EXPIRED METARs :
  • 212350Z 14004KT 9999 FEW006 SCT016 BKN090 18/16 Q1015 TEMPO SHRA
  • 212320Z 16005KT 9999 FEW006 BKN017 BKN120 17/16 Q1015 TEMPO SHRA
  • 212250Z 14003KT 110V200 9999 FEW016 BKN100 17/16 Q1015 TEMPO SHRA
  • 212220Z 17004KT 9999 FEW023 SCT033 BKN043 17/16 Q1015 TEMPO SHRA
  • 212150Z VRB01KT 9999 FEW011 SCT040 BKN095 17/16 Q1015 TEMPO SHRA

TAF TAF LSZH
Valid from the 22 at 00:00 until the 23 at 06:00 UTC


212325Z 2200/2306 VRB03KT 9999 FEW015 BKN090 TX28/2215Z TN16/2204Z TN17/2304Z
TEMPO 2200/2203 -SHRA
TEMPO 2202/2206 0400 PRFG
TEMPO 2216/2223 25015G30KT 4500 TSRA SCT035CB BKN050
ATIS : +41 43 816 2295 (DEP) +41 43 816 2294 (ARR)
No reported NOTAMs for that airfield.



MET'MAP, your aeronautical weather chart ! - Copyright ORBIFLY December 2007 - Disclaimer

ORBIFLY MET'MAP TEAM :

Programming & Development : Alexandra Zaïnal
Concept & Development : Baudouin d'Aumeries
Co-Development & Prog : Marc-Olivier Méhu
Technical & hardware support : Manuel Goepfert

Contact : metmap@orbifly.com




SOURCES & CREDITS :

   NOAA